sensor_id;sensor_type;location;lat;lon;timestamp;P1;durP1;ratioP1;P2;durP2;ratioP2
55995;SDS011;75961;51.012;4.634;2024-01-25T00:02:02;97.43;;;13.57;;
55995;SDS011;75961;51.012;4.634;2024-01-25T00:04:28;88.07;;;13.80;;
55995;SDS011;75961;51.012;4.634;2024-01-25T00:06:54;93.43;;;13.18;;
55995;SDS011;75961;51.012;4.634;2024-01-25T00:09:19;94.07;;;13.70;;
55995;SDS011;75961;51.012;4.634;2024-01-25T00:11:45;88.07;;;13.73;;
55995;SDS011;75961;51.012;4.634;2024-01-25T00:14:11;98.15;;;14.50;;
55995;SDS011;75961;51.012;4.634;2024-01-25T00:16:40;83.57;;;12.88;;
55995;SDS011;75961;51.012;4.634;2024-01-25T00:19:06;116.03;;;15.52;;
55995;SDS011;75961;51.012;4.634;2024-01-25T00:21:32;94.85;;;14.70;;
55995;SDS011;75961;51.012;4.634;2024-01-25T00:23:58;86.85;;;13.80;;
55995;SDS011;75961;51.012;4.634;2024-01-25T00:26:23;106.63;;;14.23;;
55995;SDS011;75961;51.012;4.634;2024-01-25T00:28:49;92.88;;;13.77;;
55995;SDS011;75961;51.012;4.634;2024-01-25T00:31:15;97.85;;;13.23;;
55995;SDS011;75961;51.012;4.634;2024-01-25T00:33:41;117.93;;;14.43;;
55995;SDS011;75961;51.012;4.634;2024-01-25T00:36:06;93.88;;;13.45;;
55995;SDS011;75961;51.012;4.634;2024-01-25T00:38:33;111.82;;;13.35;;
55995;SDS011;75961;51.012;4.634;2024-01-25T00:40:59;114.85;;;14.45;;
55995;SDS011;75961;51.012;4.634;2024-01-25T00:43:25;115.40;;;14.50;;
55995;SDS011;75961;51.012;4.634;2024-01-25T00:45:51;108.70;;;15.20;;
55995;SDS011;75961;51.012;4.634;2024-01-25T00:48:17;91.75;;;13.80;;
55995;SDS011;75961;51.012;4.634;2024-01-25T00:50:43;106.75;;;13.85;;
55995;SDS011;75961;51.012;4.634;2024-01-25T00:53:09;95.20;;;14.90;;
55995;SDS011;75961;51.012;4.634;2024-01-25T00:55:35;96.80;;;13.80;;
55995;SDS011;75961;51.012;4.634;2024-01-25T00:58:01;105.63;;;14.82;;
55995;SDS011;75961;51.012;4.634;2024-01-25T01:00:27;103.13;;;14.52;;
55995;SDS011;75961;51.012;4.634;2024-01-25T01:02:53;119.45;;;16.10;;
55995;SDS011;75961;51.012;4.634;2024-01-25T01:05:21;131.23;;;16.25;;
55995;SDS011;75961;51.012;4.634;2024-01-25T01:07:47;116.78;;;16.30;;
55995;SDS011;75961;51.012;4.634;2024-01-25T01:10:13;118.88;;;15.98;;
55995;SDS011;75961;51.012;4.634;2024-01-25T01:12:39;113.22;;;15.32;;
55995;SDS011;75961;51.012;4.634;2024-01-25T01:15:05;109.47;;;15.00;;
55995;SDS011;75961;51.012;4.634;2024-01-25T01:17:31;102.80;;;15.55;;
55995;SDS011;75961;51.012;4.634;2024-01-25T01:19:56;136.98;;;15.88;;
55995;SDS011;75961;51.012;4.634;2024-01-25T01:22:22;119.63;;;13.30;;
55995;SDS011;75961;51.012;4.634;2024-01-25T01:24:48;126.70;;;14.27;;
55995;SDS011;75961;51.012;4.634;2024-01-25T01:27:14;138.25;;;16.40;;
55995;SDS011;75961;51.012;4.634;2024-01-25T01:29:39;123.35;;;14.00;;
55995;SDS011;75961;51.012;4.634;2024-01-25T01:32:06;118.25;;;14.88;;
55995;SDS011;75961;51.012;4.634;2024-01-25T01:34:32;143.82;;;17.08;;
55995;SDS011;75961;51.012;4.634;2024-01-25T01:36:57;136.02;;;16.33;;
55995;SDS011;75961;51.012;4.634;2024-01-25T01:39:23;135.48;;;15.95;;
55995;SDS011;75961;51.012;4.634;2024-01-25T01:41:50;116.53;;;14.50;;
55995;SDS011;75961;51.012;4.634;2024-01-25T01:44:16;126.38;;;14.85;;
55995;SDS011;75961;51.012;4.634;2024-01-25T01:46:41;140.10;;;16.10;;
55995;SDS011;75961;51.012;4.634;2024-01-25T01:49:08;139.70;;;17.60;;
55995;SDS011;75961;51.012;4.634;2024-01-25T01:51:36;149.95;;;15.98;;
55995;SDS011;75961;51.012;4.634;2024-01-25T01:54:05;133.73;;;14.77;;
55995;SDS011;75961;51.012;4.634;2024-01-25T01:56:32;139.30;;;15.90;;
55995;SDS011;75961;51.012;4.634;2024-01-25T01:59:03;133.20;;;15.30;;
55995;SDS011;75961;51.012;4.634;2024-01-25T02:01:30;118.80;;;15.50;;
55995;SDS011;75961;51.012;4.634;2024-01-25T02:03:56;148.90;;;16.00;;
55995;SDS011;75961;51.012;4.634;2024-01-25T02:06:25;144.00;;;16.52;;
55995;SDS011;75961;51.012;4.634;2024-01-25T02:08:51;164.23;;;17.02;;
55995;SDS011;75961;51.012;4.634;2024-01-25T02:11:23;135.98;;;15.77;;
55995;SDS011;75961;51.012;4.634;2024-01-25T02:13:49;155.40;;;17.52;;
55995;SDS011;75961;51.012;4.634;2024-01-25T02:16:15;158.10;;;16.75;;
55995;SDS011;75961;51.012;4.634;2024-01-25T02:18:42;133.82;;;14.45;;
55995;SDS011;75961;51.012;4.634;2024-01-25T02:21:08;127.93;;;14.52;;
55995;SDS011;75961;51.012;4.634;2024-01-25T02:23:34;144.38;;;15.43;;
55995;SDS011;75961;51.012;4.634;2024-01-25T02:25:59;155.30;;;16.75;;
55995;SDS011;75961;51.012;4.634;2024-01-25T02:28:25;142.57;;;15.57;;
55995;SDS011;75961;51.012;4.634;2024-01-25T02:30:51;125.28;;;16.20;;
55995;SDS011;75961;51.012;4.634;2024-01-25T02:33:17;133.82;;;15.23;;
55995;SDS011;75961;51.012;4.634;2024-01-25T02:35:42;162.00;;;17.08;;
55995;SDS011;75961;51.012;4.634;2024-01-25T02:38:08;164.93;;;16.90;;
55995;SDS011;75961;51.012;4.634;2024-01-25T02:40:34;152.18;;;17.45;;
55995;SDS011;75961;51.012;4.634;2024-01-25T02:43:00;141.05;;;15.80;;
55995;SDS011;75961;51.012;4.634;2024-01-25T02:45:25;145.48;;;16.83;;
55995;SDS011;75961;51.012;4.634;2024-01-25T02:47:51;155.07;;;16.70;;
55995;SDS011;75961;51.012;4.634;2024-01-25T02:50:17;158.80;;;17.60;;
55995;SDS011;75961;51.012;4.634;2024-01-25T02:52:42;179.27;;;17.70;;
55995;SDS011;75961;51.012;4.634;2024-01-25T02:55:08;141.85;;;16.08;;
55995;SDS011;75961;51.012;4.634;2024-01-25T02:57:34;136.05;;;16.42;;
55995;SDS011;75961;51.012;4.634;2024-01-25T03:00:00;139.05;;;15.95;;
55995;SDS011;75961;51.012;4.634;2024-01-25T03:02:26;190.10;;;17.50;;
55995;SDS011;75961;51.012;4.634;2024-01-25T03:04:51;142.30;;;15.30;;
55995;SDS011;75961;51.012;4.634;2024-01-25T03:07:17;145.60;;;15.93;;
55995;SDS011;75961;51.012;4.634;2024-01-25T03:09:43;137.55;;;14.95;;
55995;SDS011;75961;51.012;4.634;2024-01-25T03:12:08;156.05;;;17.50;;
55995;SDS011;75961;51.012;4.634;2024-01-25T03:14:34;187.18;;;17.35;;
55995;SDS011;75961;51.012;4.634;2024-01-25T03:17:00;168.30;;;18.50;;
55995;SDS011;75961;51.012;4.634;2024-01-25T03:19:26;140.27;;;16.23;;
55995;SDS011;75961;51.012;4.634;2024-01-25T03:21:52;168.73;;;17.80;;
55995;SDS011;75961;51.012;4.634;2024-01-25T03:24:19;179.82;;;18.02;;
55995;SDS011;75961;51.012;4.634;2024-01-25T03:26:49;159.30;;;16.88;;
55995;SDS011;75961;51.012;4.634;2024-01-25T03:29:15;159.77;;;16.60;;
55995;SDS011;75961;51.012;4.634;2024-01-25T03:31:40;137.80;;;16.17;;
55995;SDS011;75961;51.012;4.634;2024-01-25T03:34:06;146.60;;;14.55;;
55995;SDS011;75961;51.012;4.634;2024-01-25T03:36:32;154.32;;;17.40;;
55995;SDS011;75961;51.012;4.634;2024-01-25T03:38:58;189.27;;;18.80;;
55995;SDS011;75961;51.012;4.634;2024-01-25T03:41:23;149.95;;;14.68;;
55995;SDS011;75961;51.012;4.634;2024-01-25T03:43:49;167.20;;;17.60;;
55995;SDS011;75961;51.012;4.634;2024-01-25T03:46:15;166.68;;;16.95;;
55995;SDS011;75961;51.012;4.634;2024-01-25T03:48:41;118.65;;;15.05;;
55995;SDS011;75961;51.012;4.634;2024-01-25T03:51:07;173.77;;;17.63;;
55995;SDS011;75961;51.012;4.634;2024-01-25T03:53:33;165.43;;;17.42;;
55995;SDS011;75961;51.012;4.634;2024-01-25T03:55:59;158.45;;;18.05;;
55995;SDS011;75961;51.012;4.634;2024-01-25T03:58:24;147.80;;;16.98;;
55995;SDS011;75961;51.012;4.634;2024-01-25T04:00:50;158.50;;;17.05;;
55995;SDS011;75961;51.012;4.634;2024-01-25T04:03:16;117.03;;;13.10;;
55995;SDS011;75961;51.012;4.634;2024-01-25T04:05:42;114.93;;;13.90;;
55995;SDS011;75961;51.012;4.634;2024-01-25T04:08:07;141.10;;;15.38;;
55995;SDS011;75961;51.012;4.634;2024-01-25T04:10:33;104.88;;;13.38;;
55995;SDS011;75961;51.012;4.634;2024-01-25T04:12:59;104.70;;;14.52;;
55995;SDS011;75961;51.012;4.634;2024-01-25T04:15:25;107.82;;;13.77;;
55995;SDS011;75961;51.012;4.634;2024-01-25T04:17:51;124.10;;;14.18;;
55995;SDS011;75961;51.012;4.634;2024-01-25T04:20:21;144.63;;;16.30;;
55995;SDS011;75961;51.012;4.634;2024-01-25T04:22:47;130.18;;;16.13;;
55995;SDS011;75961;51.012;4.634;2024-01-25T04:25:12;153.25;;;17.13;;
55995;SDS011;75961;51.012;4.634;2024-01-25T04:27:38;121.53;;;13.48;;
55995;SDS011;75961;51.012;4.634;2024-01-25T04:30:05;101.25;;;13.25;;
55995;SDS011;75961;51.012;4.634;2024-01-25T04:32:31;98.28;;;13.23;;
55995;SDS011;75961;51.012;4.634;2024-01-25T04:34:57;124.50;;;14.50;;
55995;SDS011;75961;51.012;4.634;2024-01-25T04:37:23;83.35;;;11.75;;
55995;SDS011;75961;51.012;4.634;2024-01-25T04:39:48;99.20;;;12.75;;
55995;SDS011;75961;51.012;4.634;2024-01-25T04:42:14;129.63;;;16.13;;
55995;SDS011;75961;51.012;4.634;2024-01-25T04:44:40;108.78;;;13.98;;
55995;SDS011;75961;51.012;4.634;2024-01-25T04:47:06;144.82;;;17.73;;
55995;SDS011;75961;51.012;4.634;2024-01-25T04:49:31;91.35;;;12.73;;
55995;SDS011;75961;51.012;4.634;2024-01-25T04:51:57;98.07;;;12.30;;
55995;SDS011;75961;51.012;4.634;2024-01-25T04:54:23;105.13;;;13.20;;
55995;SDS011;75961;51.012;4.634;2024-01-25T04:56:49;126.28;;;13.18;;
55995;SDS011;75961;51.012;4.634;2024-01-25T04:59:14;90.03;;;10.82;;
55995;SDS011;75961;51.012;4.634;2024-01-25T05:01:40;111.80;;;12.30;;
55995;SDS011;75961;51.012;4.634;2024-01-25T05:04:06;131.82;;;15.68;;
55995;SDS011;75961;51.012;4.634;2024-01-25T05:06:31;123.93;;;16.55;;
55995;SDS011;75961;51.012;4.634;2024-01-25T05:08:58;157.18;;;17.42;;
55995;SDS011;75961;51.012;4.634;2024-01-25T05:11:23;173.27;;;21.10;;
55995;SDS011;75961;51.012;4.634;2024-01-25T05:13:49;144.80;;;16.20;;
55995;SDS011;75961;51.012;4.634;2024-01-25T05:16:15;101.15;;;13.27;;
55995;SDS011;75961;51.012;4.634;2024-01-25T05:18:40;101.40;;;13.07;;
55995;SDS011;75961;51.012;4.634;2024-01-25T05:21:06;123.97;;;15.05;;
55995;SDS011;75961;51.012;4.634;2024-01-25T05:23:32;121.20;;;15.20;;
55995;SDS011;75961;51.012;4.634;2024-01-25T05:25:57;99.13;;;12.85;;
55995;SDS011;75961;51.012;4.634;2024-01-25T05:28:23;91.25;;;11.02;;
55995;SDS011;75961;51.012;4.634;2024-01-25T05:30:49;98.65;;;12.43;;
55995;SDS011;75961;51.012;4.634;2024-01-25T05:33:15;121.97;;;14.80;;
55995;SDS011;75961;51.012;4.634;2024-01-25T05:35:41;92.80;;;12.50;;
55995;SDS011;75961;51.012;4.634;2024-01-25T05:38:07;111.32;;;14.27;;
55995;SDS011;75961;51.012;4.634;2024-01-25T05:40:32;143.80;;;16.02;;
55995;SDS011;75961;51.012;4.634;2024-01-25T05:42:59;94.05;;;12.30;;
55995;SDS011;75961;51.012;4.634;2024-01-25T05:45:24;134.27;;;16.00;;
55995;SDS011;75961;51.012;4.634;2024-01-25T05:47:51;86.70;;;12.43;;
55995;SDS011;75961;51.012;4.634;2024-01-25T05:50:17;117.28;;;14.50;;
55995;SDS011;75961;51.012;4.634;2024-01-25T05:52:43;110.53;;;13.82;;
55995;SDS011;75961;51.012;4.634;2024-01-25T05:55:08;97.82;;;12.07;;
55995;SDS011;75961;51.012;4.634;2024-01-25T05:57:34;125.03;;;15.50;;
55995;SDS011;75961;51.012;4.634;2024-01-25T06:00:01;143.43;;;18.25;;
55995;SDS011;75961;51.012;4.634;2024-01-25T06:02:28;155.65;;;19.23;;
55995;SDS011;75961;51.012;4.634;2024-01-25T06:04:53;142.10;;;15.60;;
55995;SDS011;75961;51.012;4.634;2024-01-25T06:07:20;141.95;;;17.48;;
55995;SDS011;75961;51.012;4.634;2024-01-25T06:09:45;136.57;;;16.35;;
55995;SDS011;75961;51.012;4.634;2024-01-25T06:12:11;108.45;;;13.68;;
55995;SDS011;75961;51.012;4.634;2024-01-25T06:14:37;132.18;;;15.10;;
55995;SDS011;75961;51.012;4.634;2024-01-25T06:17:03;142.40;;;16.20;;
55995;SDS011;75961;51.012;4.634;2024-01-25T06:19:29;138.90;;;15.98;;
55995;SDS011;75961;51.012;4.634;2024-01-25T06:21:54;150.48;;;17.00;;
55995;SDS011;75961;51.012;4.634;2024-01-25T06:24:20;161.00;;;19.08;;
55995;SDS011;75961;51.012;4.634;2024-01-25T06:26:46;171.68;;;19.35;;
55995;SDS011;75961;51.012;4.634;2024-01-25T06:29:11;118.10;;;15.15;;
55995;SDS011;75961;51.012;4.634;2024-01-25T06:31:43;106.80;;;14.40;;
55995;SDS011;75961;51.012;4.634;2024-01-25T06:34:09;167.50;;;19.77;;
55995;SDS011;75961;51.012;4.634;2024-01-25T06:36:35;151.75;;;18.13;;
55995;SDS011;75961;51.012;4.634;2024-01-25T06:39:01;144.93;;;16.42;;
55995;SDS011;75961;51.012;4.634;2024-01-25T06:41:29;126.38;;;15.85;;
55995;SDS011;75961;51.012;4.634;2024-01-25T06:43:55;156.63;;;18.13;;
55995;SDS011;75961;51.012;4.634;2024-01-25T06:46:20;157.00;;;18.65;;
55995;SDS011;75961;51.012;4.634;2024-01-25T06:48:46;120.70;;;15.20;;
55995;SDS011;75961;51.012;4.634;2024-01-25T06:51:12;137.55;;;16.50;;
55995;SDS011;75961;51.012;4.634;2024-01-25T06:53:39;176.65;;;23.33;;
55995;SDS011;75961;51.012;4.634;2024-01-25T06:56:05;142.38;;;16.13;;
55995;SDS011;75961;51.012;4.634;2024-01-25T06:58:31;113.88;;;13.60;;
55995;SDS011;75961;51.012;4.634;2024-01-25T07:00:57;164.63;;;20.08;;
55995;SDS011;75961;51.012;4.634;2024-01-25T07:03:23;183.50;;;23.08;;
55995;SDS011;75961;51.012;4.634;2024-01-25T07:05:49;139.35;;;20.10;;
55995;SDS011;75961;51.012;4.634;2024-01-25T07:08:15;109.50;;;16.00;;
55995;SDS011;75961;51.012;4.634;2024-01-25T07:10:41;159.75;;;16.23;;
55995;SDS011;75961;51.012;4.634;2024-01-25T07:13:07;192.35;;;24.83;;
55995;SDS011;75961;51.012;4.634;2024-01-25T07:15:33;168.55;;;22.35;;
55995;SDS011;75961;51.012;4.634;2024-01-25T07:17:59;175.93;;;25.70;;
55995;SDS011;75961;51.012;4.634;2024-01-25T07:20:24;180.80;;;20.50;;
55995;SDS011;75961;51.012;4.634;2024-01-25T07:22:50;180.13;;;22.52;;
55995;SDS011;75961;51.012;4.634;2024-01-25T07:25:16;171.77;;;21.48;;
55995;SDS011;75961;51.012;4.634;2024-01-25T07:27:45;177.20;;;23.33;;
55995;SDS011;75961;51.012;4.634;2024-01-25T07:30:11;200.60;;;27.75;;
55995;SDS011;75961;51.012;4.634;2024-01-25T07:32:38;183.77;;;23.50;;
55995;SDS011;75961;51.012;4.634;2024-01-25T07:35:06;190.57;;;25.38;;
55995;SDS011;75961;51.012;4.634;2024-01-25T07:37:33;183.07;;;22.60;;
55995;SDS011;75961;51.012;4.634;2024-01-25T07:39:58;162.32;;;20.80;;
55995;SDS011;75961;51.012;4.634;2024-01-25T07:42:24;184.98;;;23.48;;
55995;SDS011;75961;51.012;4.634;2024-01-25T07:44:50;208.85;;;24.27;;
55995;SDS011;75961;51.012;4.634;2024-01-25T07:47:15;200.88;;;25.08;;
55995;SDS011;75961;51.012;4.634;2024-01-25T07:49:41;201.43;;;25.40;;
55995;SDS011;75961;51.012;4.634;2024-01-25T07:52:07;208.25;;;27.08;;
55995;SDS011;75961;51.012;4.634;2024-01-25T07:54:33;205.25;;;25.30;;
55995;SDS011;75961;51.012;4.634;2024-01-25T07:56:58;180.52;;;22.52;;
55995;SDS011;75961;51.012;4.634;2024-01-25T07:59:24;182.52;;;20.90;;
55995;SDS011;75961;51.012;4.634;2024-01-25T08:01:50;194.93;;;22.75;;
55995;SDS011;75961;51.012;4.634;2024-01-25T08:04:15;175.85;;;22.33;;
55995;SDS011;75961;51.012;4.634;2024-01-25T08:06:41;180.10;;;21.17;;
55995;SDS011;75961;51.012;4.634;2024-01-25T08:09:06;209.27;;;25.02;;
55995;SDS011;75961;51.012;4.634;2024-01-25T08:11:33;208.75;;;25.92;;
55995;SDS011;75961;51.012;4.634;2024-01-25T08:13:59;167.45;;;24.80;;
55995;SDS011;75961;51.012;4.634;2024-01-25T08:16:25;193.15;;;25.15;;
55995;SDS011;75961;51.012;4.634;2024-01-25T08:18:51;177.23;;;23.13;;
55995;SDS011;75961;51.012;4.634;2024-01-25T08:21:17;174.23;;;23.08;;
55995;SDS011;75961;51.012;4.634;2024-01-25T08:23:42;145.00;;;21.75;;
55995;SDS011;75961;51.012;4.634;2024-01-25T08:26:08;127.13;;;20.55;;
55995;SDS011;75961;51.012;4.634;2024-01-25T08:28:41;156.55;;;19.10;;
55995;SDS011;75961;51.012;4.634;2024-01-25T08:31:10;145.75;;;19.80;;
55995;SDS011;75961;51.012;4.634;2024-01-25T08:33:38;143.00;;;20.13;;
55995;SDS011;75961;51.012;4.634;2024-01-25T08:36:07;130.73;;;19.35;;
55995;SDS011;75961;51.012;4.634;2024-01-25T08:38:32;135.40;;;19.73;;
55995;SDS011;75961;51.012;4.634;2024-01-25T08:40:58;112.30;;;21.27;;
55995;SDS011;75961;51.012;4.634;2024-01-25T08:43:24;103.43;;;20.83;;
55995;SDS011;75961;51.012;4.634;2024-01-25T08:45:49;105.75;;;20.75;;
55995;SDS011;75961;51.012;4.634;2024-01-25T08:48:15;99.72;;;20.52;;
55995;SDS011;75961;51.012;4.634;2024-01-25T08:50:41;99.95;;;20.73;;
55995;SDS011;75961;51.012;4.634;2024-01-25T08:53:07;99.18;;;21.17;;
55995;SDS011;75961;51.012;4.634;2024-01-25T08:55:33;85.50;;;21.23;;
55995;SDS011;75961;51.012;4.634;2024-01-25T08:57:58;89.13;;;23.02;;
55995;SDS011;75961;51.012;4.634;2024-01-25T09:00:24;82.13;;;21.48;;
55995;SDS011;75961;51.012;4.634;2024-01-25T09:02:50;77.20;;;22.13;;
55995;SDS011;75961;51.012;4.634;2024-01-25T09:05:16;65.72;;;22.73;;
55995;SDS011;75961;51.012;4.634;2024-01-25T09:07:41;73.60;;;24.50;;
55995;SDS011;75961;51.012;4.634;2024-01-25T09:10:08;71.82;;;24.20;;
55995;SDS011;75961;51.012;4.634;2024-01-25T09:12:34;72.40;;;23.90;;
55995;SDS011;75961;51.012;4.634;2024-01-25T09:15:00;70.15;;;23.50;;
55995;SDS011;75961;51.012;4.634;2024-01-25T09:17:27;58.22;;;22.25;;
55995;SDS011;75961;51.012;4.634;2024-01-25T09:19:52;81.80;;;23.52;;
55995;SDS011;75961;51.012;4.634;2024-01-25T09:22:18;74.75;;;25.05;;
55995;SDS011;75961;51.012;4.634;2024-01-25T09:24:47;76.55;;;26.02;;
55995;SDS011;75961;51.012;4.634;2024-01-25T09:27:13;61.40;;;24.33;;
55995;SDS011;75961;51.012;4.634;2024-01-25T09:29:40;69.40;;;23.30;;
55995;SDS011;75961;51.012;4.634;2024-01-25T09:32:06;61.15;;;24.98;;
55995;SDS011;75961;51.012;4.634;2024-01-25T09:34:38;59.28;;;23.73;;
55995;SDS011;75961;51.012;4.634;2024-01-25T09:37:04;52.90;;;23.77;;
55995;SDS011;75961;51.012;4.634;2024-01-25T09:39:31;63.10;;;24.67;;
55995;SDS011;75961;51.012;4.634;2024-01-25T09:41:57;61.92;;;23.80;;
55995;SDS011;75961;51.012;4.634;2024-01-25T09:44:23;62.70;;;23.70;;
55995;SDS011;75961;51.012;4.634;2024-01-25T09:46:49;63.38;;;23.50;;
55995;SDS011;75961;51.012;4.634;2024-01-25T09:49:16;62.40;;;24.52;;
55995;SDS011;75961;51.012;4.634;2024-01-25T09:51:42;58.28;;;24.10;;
55995;SDS011;75961;51.012;4.634;2024-01-25T09:54:08;61.40;;;25.00;;
55995;SDS011;75961;51.012;4.634;2024-01-25T09:56:35;65.45;;;25.65;;
55995;SDS011;75961;51.012;4.634;2024-01-25T09:59:01;62.03;;;25.02;;
55995;SDS011;75961;51.012;4.634;2024-01-25T10:01:27;57.95;;;25.63;;
55995;SDS011;75961;51.012;4.634;2024-01-25T10:03:53;70.30;;;26.15;;
55995;SDS011;75961;51.012;4.634;2024-01-25T10:06:22;70.93;;;27.38;;
55995;SDS011;75961;51.012;4.634;2024-01-25T10:08:48;63.72;;;25.73;;
55995;SDS011;75961;51.012;4.634;2024-01-25T10:11:15;64.78;;;27.83;;
55995;SDS011;75961;51.012;4.634;2024-01-25T10:13:41;72.50;;;28.80;;
55995;SDS011;75961;51.012;4.634;2024-01-25T10:16:14;62.50;;;28.35;;
55995;SDS011;75961;51.012;4.634;2024-01-25T10:18:41;82.60;;;31.05;;
55995;SDS011;75961;51.012;4.634;2024-01-25T10:21:11;90.05;;;31.90;;
55995;SDS011;75961;51.012;4.634;2024-01-25T10:23:38;96.15;;;34.28;;
55995;SDS011;75961;51.012;4.634;2024-01-25T10:26:04;94.78;;;35.13;;
55995;SDS011;75961;51.012;4.634;2024-01-25T10:28:30;94.60;;;33.42;;
55995;SDS011;75961;51.012;4.634;2024-01-25T10:31:00;84.03;;;32.85;;
55995;SDS011;75961;51.012;4.634;2024-01-25T10:33:27;86.97;;;33.60;;
55995;SDS011;75961;51.012;4.634;2024-01-25T10:35:56;86.35;;;32.83;;
55995;SDS011;75961;51.012;4.634;2024-01-25T10:40:58;71.63;;;28.80;;
55995;SDS011;75961;51.012;4.634;2024-01-25T10:43:26;76.13;;;29.23;;
55995;SDS011;75961;51.012;4.634;2024-01-25T10:45:52;81.72;;;30.63;;
55995;SDS011;75961;51.012;4.634;2024-01-25T10:48:21;77.55;;;29.30;;
55995;SDS011;75961;51.012;4.634;2024-01-25T10:50:47;75.00;;;28.45;;
55995;SDS011;75961;51.012;4.634;2024-01-25T10:53:14;80.22;;;30.38;;
55995;SDS011;75961;51.012;4.634;2024-01-25T10:55:42;70.50;;;29.02;;
55995;SDS011;75961;51.012;4.634;2024-01-25T10:58:07;74.88;;;27.50;;
55995;SDS011;75961;51.012;4.634;2024-01-25T11:00:33;66.68;;;27.38;;
55995;SDS011;75961;51.012;4.634;2024-01-25T11:03:00;69.90;;;25.10;;
55995;SDS011;75961;51.012;4.634;2024-01-25T11:05:26;59.72;;;24.45;;
55995;SDS011;75961;51.012;4.634;2024-01-25T11:07:53;57.10;;;24.42;;
55995;SDS011;75961;51.012;4.634;2024-01-25T11:10:21;58.80;;;23.55;;
55995;SDS011;75961;51.012;4.634;2024-01-25T11:12:51;50.60;;;21.92;;
55995;SDS011;75961;51.012;4.634;2024-01-25T11:15:38;60.28;;;23.15;;
55995;SDS011;75961;51.012;4.634;2024-01-25T11:18:07;59.67;;;23.08;;
55995;SDS011;75961;51.012;4.634;2024-01-25T11:20:33;63.42;;;23.23;;
55995;SDS011;75961;51.012;4.634;2024-01-25T11:23:04;61.33;;;23.27;;
55995;SDS011;75961;51.012;4.634;2024-01-25T11:25:32;54.65;;;23.13;;
55995;SDS011;75961;51.012;4.634;2024-01-25T11:27:59;58.10;;;22.90;;
55995;SDS011;75961;51.012;4.634;2024-01-25T11:30:28;63.40;;;23.17;;
55995;SDS011;75961;51.012;4.634;2024-01-25T11:32:55;58.28;;;22.67;;
55995;SDS011;75961;51.012;4.634;2024-01-25T11:35:21;51.22;;;22.48;;
55995;SDS011;75961;51.012;4.634;2024-01-25T11:37:47;60.80;;;23.27;;
55995;SDS011;75961;51.012;4.634;2024-01-25T11:40:14;51.25;;;21.25;;
55995;SDS011;75961;51.012;4.634;2024-01-25T11:42:45;52.65;;;20.50;;
55995;SDS011;75961;51.012;4.634;2024-01-25T11:45:13;55.35;;;21.38;;
55995;SDS011;75961;51.012;4.634;2024-01-25T11:47:39;52.72;;;21.05;;
55995;SDS011;75961;51.012;4.634;2024-01-25T11:50:07;61.22;;;20.75;;
55995;SDS011;75961;51.012;4.634;2024-01-25T11:52:36;55.63;;;19.58;;
55995;SDS011;75961;51.012;4.634;2024-01-25T11:55:02;53.95;;;19.98;;
55995;SDS011;75961;51.012;4.634;2024-01-25T11:57:33;59.85;;;19.60;;
55995;SDS011;75961;51.012;4.634;2024-01-25T12:00:07;62.65;;;20.45;;
55995;SDS011;75961;51.012;4.634;2024-01-25T12:02:35;53.40;;;19.77;;
55995;SDS011;75961;51.012;4.634;2024-01-25T12:05:02;62.13;;;19.40;;
55995;SDS011;75961;51.012;4.634;2024-01-25T12:07:32;62.22;;;19.33;;
55995;SDS011;75961;51.012;4.634;2024-01-25T12:10:07;60.95;;;19.83;;
55995;SDS011;75961;51.012;4.634;2024-01-25T12:12:36;59.13;;;18.15;;
55995;SDS011;75961;51.012;4.634;2024-01-25T12:15:05;73.90;;;20.58;;
55995;SDS011;75961;51.012;4.634;2024-01-25T12:17:32;60.88;;;17.85;;
55995;SDS011;75961;51.012;4.634;2024-01-25T12:20:01;61.90;;;19.05;;
55995;SDS011;75961;51.012;4.634;2024-01-25T12:22:28;61.60;;;18.20;;
55995;SDS011;75961;51.012;4.634;2024-01-25T12:24:58;59.65;;;18.63;;
55995;SDS011;75961;51.012;4.634;2024-01-25T12:27:24;75.95;;;20.20;;
55995;SDS011;75961;51.012;4.634;2024-01-25T12:29:51;62.92;;;18.08;;
55995;SDS011;75961;51.012;4.634;2024-01-25T12:32:21;52.65;;;18.17;;
55995;SDS011;75961;51.012;4.634;2024-01-25T12:34:54;64.57;;;18.33;;
55995;SDS011;75961;51.012;4.634;2024-01-25T12:37:20;57.10;;;16.48;;
55995;SDS011;75961;51.012;4.634;2024-01-25T12:39:46;74.80;;;17.27;;
55995;SDS011;75961;51.012;4.634;2024-01-25T12:42:12;62.15;;;18.55;;
55995;SDS011;75961;51.012;4.634;2024-01-25T12:44:38;63.03;;;17.20;;
55995;SDS011;75961;51.012;4.634;2024-01-25T12:47:04;67.18;;;17.55;;
55995;SDS011;75961;51.012;4.634;2024-01-25T12:49:32;61.17;;;17.38;;
55995;SDS011;75961;51.012;4.634;2024-01-25T12:51:58;66.53;;;17.75;;
55995;SDS011;75961;51.012;4.634;2024-01-25T12:54:24;58.88;;;16.23;;
55995;SDS011;75961;51.012;4.634;2024-01-25T12:56:51;54.50;;;16.90;;
55995;SDS011;75961;51.012;4.634;2024-01-25T12:59:17;60.20;;;15.50;;
55995;SDS011;75961;51.012;4.634;2024-01-25T13:01:42;56.95;;;15.95;;
55995;SDS011;75961;51.012;4.634;2024-01-25T13:04:08;71.68;;;18.33;;
55995;SDS011;75961;51.012;4.634;2024-01-25T13:06:34;60.00;;;16.92;;
55995;SDS011;75961;51.012;4.634;2024-01-25T13:09:00;60.13;;;17.38;;
55995;SDS011;75961;51.012;4.634;2024-01-25T13:11:25;62.88;;;16.88;;
55995;SDS011;75961;51.012;4.634;2024-01-25T13:13:51;61.05;;;16.10;;
55995;SDS011;75961;51.012;4.634;2024-01-25T13:16:17;64.10;;;15.73;;
55995;SDS011;75961;51.012;4.634;2024-01-25T13:18:43;66.00;;;16.38;;
55995;SDS011;75961;51.012;4.634;2024-01-25T13:21:08;47.63;;;14.27;;
55995;SDS011;75961;51.012;4.634;2024-01-25T13:23:34;57.13;;;15.60;;
55995;SDS011;75961;51.012;4.634;2024-01-25T13:26:00;53.95;;;16.40;;
55995;SDS011;75961;51.012;4.634;2024-01-25T13:28:26;54.67;;;17.05;;
55995;SDS011;75961;51.012;4.634;2024-01-25T13:30:52;51.45;;;15.65;;
55995;SDS011;75961;51.012;4.634;2024-01-25T13:33:19;60.58;;;17.45;;
55995;SDS011;75961;51.012;4.634;2024-01-25T13:35:44;58.35;;;17.80;;
55995;SDS011;75961;51.012;4.634;2024-01-25T13:38:10;48.08;;;16.45;;
55995;SDS011;75961;51.012;4.634;2024-01-25T13:40:39;52.97;;;17.20;;
55995;SDS011;75961;51.012;4.634;2024-01-25T13:43:05;48.60;;;17.60;;
55995;SDS011;75961;51.012;4.634;2024-01-25T13:45:31;50.17;;;17.48;;
55995;SDS011;75961;51.012;4.634;2024-01-25T13:47:57;44.35;;;16.95;;
55995;SDS011;75961;51.012;4.634;2024-01-25T13:50:23;56.05;;;18.02;;
55995;SDS011;75961;51.012;4.634;2024-01-25T13:52:48;51.03;;;17.15;;
55995;SDS011;75961;51.012;4.634;2024-01-25T13:55:14;51.25;;;18.95;;
55995;SDS011;75961;51.012;4.634;2024-01-25T13:57:40;56.55;;;18.88;;
55995;SDS011;75961;51.012;4.634;2024-01-25T14:00:06;49.30;;;18.77;;
55995;SDS011;75961;51.012;4.634;2024-01-25T14:02:33;60.65;;;18.02;;
55995;SDS011;75961;51.012;4.634;2024-01-25T14:04:59;45.47;;;16.73;;
55995;SDS011;75961;51.012;4.634;2024-01-25T14:07:24;33.97;;;14.10;;
55995;SDS011;75961;51.012;4.634;2024-01-25T14:09:50;48.63;;;16.27;;
55995;SDS011;75961;51.012;4.634;2024-01-25T14:12:17;49.13;;;15.43;;